sensor_id;sensor_type;location;lat;lon;timestamp;pressure;altitude;pressure_sealevel;temperature;humidity
43503;BME280;29098;48.184;16.298;2023-04-06T00:00:59;99747.25;;;1.48;53.20
43503;BME280;29098;48.184;16.298;2023-04-06T00:03:25;99727.75;;;1.42;52.64
43503;BME280;29098;48.184;16.298;2023-04-06T00:05:51;99751.44;;;1.62;52.21
43503;BME280;29098;48.184;16.298;2023-04-06T00:08:17;99739.94;;;1.53;52.95
43503;BME280;29098;48.184;16.298;2023-04-06T00:10:42;99750.00;;;1.58;52.51
43503;BME280;29098;48.184;16.298;2023-04-06T00:13:08;99743.81;;;1.47;52.54
43503;BME280;29098;48.184;16.298;2023-04-06T00:15:34;99717.88;;;1.23;52.61
43503;BME280;29098;48.184;16.298;2023-04-06T00:17:59;99720.69;;;1.20;53.07
43503;BME280;29098;48.184;16.298;2023-04-06T00:20:25;99730.56;;;1.39;53.09
43503;BME280;29098;48.184;16.298;2023-04-06T00:22:51;99748.63;;;1.41;53.02
43503;BME280;29098;48.184;16.298;2023-04-06T00:25:17;99728.25;;;1.23;52.91
43503;BME280;29098;48.184;16.298;2023-04-06T00:27:42;99720.88;;;1.05;53.48
43503;BME280;29098;48.184;16.298;2023-04-06T00:30:08;99748.59;;;1.29;53.41
43503;BME280;29098;48.184;16.298;2023-04-06T00:32:37;99743.78;;;1.36;53.09
43503;BME280;29098;48.184;16.298;2023-04-06T00:35:03;99736.75;;;1.25;53.36
43503;BME280;29098;48.184;16.298;2023-04-06T00:37:29;99714.56;;;1.21;52.99
43503;BME280;29098;48.184;16.298;2023-04-06T00:39:54;99736.59;;;1.15;53.12
43503;BME280;29098;48.184;16.298;2023-04-06T00:42:21;99739.53;;;1.11;53.22
43503;BME280;29098;48.184;16.298;2023-04-06T00:45:01;99739.09;;;1.17;54.07
43503;BME280;29098;48.184;16.298;2023-04-06T00:47:27;99747.44;;;1.09;53.69
43503;BME280;29098;48.184;16.298;2023-04-06T00:49:53;99732.06;;;1.06;54.30
43503;BME280;29098;48.184;16.298;2023-04-06T00:52:19;99697.16;;;0.86;53.51
43503;BME280;29098;48.184;16.298;2023-04-06T00:54:45;99741.41;;;1.08;54.04
43503;BME280;29098;48.184;16.298;2023-04-06T00:57:11;99699.81;;;0.97;54.15
43503;BME280;29098;48.184;16.298;2023-04-06T00:59:38;99723.00;;;0.87;54.26
43503;BME280;29098;48.184;16.298;2023-04-06T01:02:03;99740.19;;;1.01;54.01
43503;BME280;29098;48.184;16.298;2023-04-06T01:04:29;99713.28;;;0.78;54.57
43503;BME280;29098;48.184;16.298;2023-04-06T01:06:57;99713.00;;;0.94;54.25
43503;BME280;29098;48.184;16.298;2023-04-06T01:09:23;99706.41;;;0.90;54.73
43503;BME280;29098;48.184;16.298;2023-04-06T01:11:48;99720.84;;;0.81;54.93
43503;BME280;29098;48.184;16.298;2023-04-06T01:14:14;99703.13;;;0.75;54.61
43503;BME280;29098;48.184;16.298;2023-04-06T01:16:41;99703.44;;;0.70;55.33
43503;BME280;29098;48.184;16.298;2023-04-06T01:19:11;99742.00;;;0.88;54.70
43503;BME280;29098;48.184;16.298;2023-04-06T01:21:37;99712.34;;;0.79;54.39
43503;BME280;29098;48.184;16.298;2023-04-06T01:24:03;99715.56;;;0.82;54.52
43503;BME280;29098;48.184;16.298;2023-04-06T01:26:29;99698.53;;;0.78;54.55
43503;BME280;29098;48.184;16.298;2023-04-06T01:28:56;99696.50;;;0.71;54.47
43503;BME280;29098;48.184;16.298;2023-04-06T01:31:22;99673.97;;;0.47;54.43
43503;BME280;29098;48.184;16.298;2023-04-06T01:33:48;99694.25;;;0.66;54.34
43503;BME280;29098;48.184;16.298;2023-04-06T01:36:14;99698.34;;;0.68;54.44
43503;BME280;29098;48.184;16.298;2023-04-06T01:38:40;99709.31;;;0.85;54.28
43503;BME280;29098;48.184;16.298;2023-04-06T01:41:07;99698.69;;;0.64;55.04
43503;BME280;29098;48.184;16.298;2023-04-06T01:43:32;99702.06;;;0.77;54.93
43503;BME280;29098;48.184;16.298;2023-04-06T01:45:58;99669.16;;;0.53;54.66
43503;BME280;29098;48.184;16.298;2023-04-06T01:48:25;99640.81;;;0.26;54.88
43503;BME280;29098;48.184;16.298;2023-04-06T01:50:51;99656.75;;;0.33;55.17
43503;BME280;29098;48.184;16.298;2023-04-06T01:53:16;99697.59;;;0.55;55.42
43503;BME280;29098;48.184;16.298;2023-04-06T01:55:42;99683.50;;;0.46;55.06
43503;BME280;29098;48.184;16.298;2023-04-06T01:58:07;99704.91;;;0.61;55.44
43503;BME280;29098;48.184;16.298;2023-04-06T02:00:33;99694.06;;;0.56;55.35
43503;BME280;29098;48.184;16.298;2023-04-06T02:02:58;99679.25;;;0.45;55.90
43503;BME280;29098;48.184;16.298;2023-04-06T02:05:25;99680.59;;;0.38;55.70
43503;BME280;29098;48.184;16.298;2023-04-06T02:07:51;99688.97;;;0.54;56.26
43503;BME280;29098;48.184;16.298;2023-04-06T02:10:17;99685.09;;;0.36;56.18
43503;BME280;29098;48.184;16.298;2023-04-06T02:12:43;99709.44;;;0.46;56.06
43503;BME280;29098;48.184;16.298;2023-04-06T02:15:08;99690.78;;;0.28;55.96
43503;BME280;29098;48.184;16.298;2023-04-06T02:17:34;99653.69;;;0.15;56.42
43503;BME280;29098;48.184;16.298;2023-04-06T02:20:00;99684.63;;;0.42;55.39
43503;BME280;29098;48.184;16.298;2023-04-06T02:22:25;99711.19;;;0.59;54.99
43503;BME280;29098;48.184;16.298;2023-04-06T02:24:51;99696.31;;;0.61;54.93
43503;BME280;29098;48.184;16.298;2023-04-06T02:27:16;99670.41;;;0.48;54.84
43503;BME280;29098;48.184;16.298;2023-04-06T02:29:42;99701.28;;;0.64;54.34
43503;BME280;29098;48.184;16.298;2023-04-06T02:32:08;99696.22;;;0.62;54.53
43503;BME280;29098;48.184;16.298;2023-04-06T02:34:33;99676.00;;;0.54;54.42
43503;BME280;29098;48.184;16.298;2023-04-06T02:36:59;99688.16;;;0.41;55.24
43503;BME280;29098;48.184;16.298;2023-04-06T02:39:24;99649.53;;;0.25;54.95
43503;BME280;29098;48.184;16.298;2023-04-06T02:41:50;99692.31;;;0.44;55.30
43503;BME280;29098;48.184;16.298;2023-04-06T02:44:15;99661.94;;;0.33;55.04
43503;BME280;29098;48.184;16.298;2023-04-06T02:46:41;99620.09;;;0.13;55.17
43503;BME280;29098;48.184;16.298;2023-04-06T02:49:06;99665.69;;;0.29;55.16
43503;BME280;29098;48.184;16.298;2023-04-06T02:51:32;99642.84;;;0.34;54.94
43503;BME280;29098;48.184;16.298;2023-04-06T02:53:58;99690.38;;;0.34;55.17
43503;BME280;29098;48.184;16.298;2023-04-06T02:56:24;99690.47;;;0.33;55.30
43503;BME280;29098;48.184;16.298;2023-04-06T02:58:50;99694.91;;;0.44;55.09
43503;BME280;29098;48.184;16.298;2023-04-06T03:01:15;99670.03;;;0.28;55.28
43503;BME280;29098;48.184;16.298;2023-04-06T03:03:41;99697.53;;;0.31;55.44
43503;BME280;29098;48.184;16.298;2023-04-06T03:06:07;99684.03;;;0.25;55.80
43503;BME280;29098;48.184;16.298;2023-04-06T03:08:32;99684.09;;;0.50;55.18
43503;BME280;29098;48.184;16.298;2023-04-06T03:10:58;99668.38;;;0.27;55.09
43503;BME280;29098;48.184;16.298;2023-04-06T03:13:23;99670.06;;;0.15;55.54
43503;BME280;29098;48.184;16.298;2023-04-06T03:15:49;99670.91;;;0.16;55.67
43503;BME280;29098;48.184;16.298;2023-04-06T03:18:15;99678.47;;;0.19;55.76
43503;BME280;29098;48.184;16.298;2023-04-06T03:20:40;99681.69;;;0.22;55.74
43503;BME280;29098;48.184;16.298;2023-04-06T03:23:06;99678.56;;;0.17;55.74
43503;BME280;29098;48.184;16.298;2023-04-06T03:25:31;99683.75;;;0.17;56.13
43503;BME280;29098;48.184;16.298;2023-04-06T03:27:57;99681.50;;;-0.01;55.73
43503;BME280;29098;48.184;16.298;2023-04-06T03:30:22;99664.72;;;-0.08;55.96
43503;BME280;29098;48.184;16.298;2023-04-06T03:32:48;99687.06;;;0.32;55.86
43503;BME280;29098;48.184;16.298;2023-04-06T03:35:13;99705.94;;;0.21;56.06
43503;BME280;29098;48.184;16.298;2023-04-06T03:37:39;99714.66;;;0.20;55.57
43503;BME280;29098;48.184;16.298;2023-04-06T03:40:06;99646.97;;;-0.14;55.74
43503;BME280;29098;48.184;16.298;2023-04-06T03:42:32;99664.47;;;-0.05;55.91
43503;BME280;29098;48.184;16.298;2023-04-06T03:44:58;99679.84;;;-0.02;56.04
43503;BME280;29098;48.184;16.298;2023-04-06T03:47:24;99702.22;;;-0.01;55.90
43503;BME280;29098;48.184;16.298;2023-04-06T03:49:49;99709.91;;;0.14;55.55
43503;BME280;29098;48.184;16.298;2023-04-06T03:52:15;99690.59;;;0.05;55.64
43503;BME280;29098;48.184;16.298;2023-04-06T03:54:40;99683.16;;;0.01;55.84
43503;BME280;29098;48.184;16.298;2023-04-06T03:57:06;99691.22;;;0.09;55.70
43503;BME280;29098;48.184;16.298;2023-04-06T03:59:31;99702.44;;;0.09;55.97
43503;BME280;29098;48.184;16.298;2023-04-06T04:01:57;99680.97;;;0.07;55.73
43503;BME280;29098;48.184;16.298;2023-04-06T04:04:23;99706.66;;;0.23;55.83
43503;BME280;29098;48.184;16.298;2023-04-06T04:06:48;99710.09;;;0.24;55.69
43503;BME280;29098;48.184;16.298;2023-04-06T04:09:14;99672.06;;;-0.02;55.52
43503;BME280;29098;48.184;16.298;2023-04-06T04:11:40;99682.22;;;0.02;55.50
43503;BME280;29098;48.184;16.298;2023-04-06T04:14:05;99692.72;;;0.00;56.00
43503;BME280;29098;48.184;16.298;2023-04-06T04:16:31;99713.81;;;0.33;55.55
43503;BME280;29098;48.184;16.298;2023-04-06T04:18:56;99694.53;;;0.11;55.98
43503;BME280;29098;48.184;16.298;2023-04-06T04:21:24;99714.34;;;-0.01;56.03
43503;BME280;29098;48.184;16.298;2023-04-06T04:23:51;99692.50;;;0.03;55.97
43503;BME280;29098;48.184;16.298;2023-04-06T04:26:18;99690.13;;;0.00;56.27
43503;BME280;29098;48.184;16.298;2023-04-06T04:28:43;99712.78;;;-0.30;56.91
43503;BME280;29098;48.184;16.298;2023-04-06T04:31:10;99709.06;;;0.01;56.72
43503;BME280;29098;48.184;16.298;2023-04-06T04:33:36;99704.72;;;-0.12;56.98
43503;BME280;29098;48.184;16.298;2023-04-06T04:36:01;99716.31;;;-0.05;56.59
43503;BME280;29098;48.184;16.298;2023-04-06T04:38:27;99711.44;;;0.04;56.72
43503;BME280;29098;48.184;16.298;2023-04-06T04:40:52;99721.94;;;0.15;56.12
43503;BME280;29098;48.184;16.298;2023-04-06T04:43:18;99694.38;;;0.01;56.27
43503;BME280;29098;48.184;16.298;2023-04-06T04:45:44;99701.72;;;-0.06;56.27
43503;BME280;29098;48.184;16.298;2023-04-06T04:48:09;99675.28;;;-0.11;56.40
43503;BME280;29098;48.184;16.298;2023-04-06T04:50:35;99733.84;;;0.18;56.62
43503;BME280;29098;48.184;16.298;2023-04-06T04:53:00;99727.94;;;0.03;56.21
43503;BME280;29098;48.184;16.298;2023-04-06T04:55:26;99700.97;;;0.18;56.73
43503;BME280;29098;48.184;16.298;2023-04-06T04:57:51;99703.47;;;0.07;56.58
43503;BME280;29098;48.184;16.298;2023-04-06T05:00:17;99721.81;;;0.04;57.15
43503;BME280;29098;48.184;16.298;2023-04-06T05:02:43;99694.78;;;-0.18;57.07
43503;BME280;29098;48.184;16.298;2023-04-06T05:05:08;99726.28;;;0.15;58.37
43503;BME280;29098;48.184;16.298;2023-04-06T05:07:34;99686.75;;;0.11;57.70
43503;BME280;29098;48.184;16.298;2023-04-06T05:10:00;99718.69;;;0.24;56.66
43503;BME280;29098;48.184;16.298;2023-04-06T05:12:25;99719.53;;;0.25;56.53
43503;BME280;29098;48.184;16.298;2023-04-06T05:14:53;99732.91;;;0.32;56.55
43503;BME280;29098;48.184;16.298;2023-04-06T05:17:19;99703.47;;;0.20;56.60
43503;BME280;29098;48.184;16.298;2023-04-06T05:19:45;99710.91;;;0.24;56.33
43503;BME280;29098;48.184;16.298;2023-04-06T05:22:10;99717.97;;;0.35;56.39
43503;BME280;29098;48.184;16.298;2023-04-06T05:24:36;99689.47;;;0.22;56.25
43503;BME280;29098;48.184;16.298;2023-04-06T05:27:02;99722.00;;;0.26;56.56
43503;BME280;29098;48.184;16.298;2023-04-06T05:29:28;99691.44;;;0.06;56.48
43503;BME280;29098;48.184;16.298;2023-04-06T05:31:54;99705.03;;;0.09;56.68
43503;BME280;29098;48.184;16.298;2023-04-06T05:34:19;99713.31;;;0.28;56.55
43503;BME280;29098;48.184;16.298;2023-04-06T05:36:45;99708.44;;;0.36;56.35
43503;BME280;29098;48.184;16.298;2023-04-06T05:39:11;99693.78;;;0.22;56.21
43503;BME280;29098;48.184;16.298;2023-04-06T05:41:37;99650.38;;;0.12;56.00
43503;BME280;29098;48.184;16.298;2023-04-06T05:44:03;99703.75;;;0.28;56.30
43503;BME280;29098;48.184;16.298;2023-04-06T05:46:28;99719.84;;;0.33;56.44
43503;BME280;29098;48.184;16.298;2023-04-06T05:48:54;99721.97;;;0.52;55.98
43503;BME280;29098;48.184;16.298;2023-04-06T05:51:19;99722.91;;;0.51;55.83
43503;BME280;29098;48.184;16.298;2023-04-06T05:53:45;99732.00;;;0.70;55.95
43503;BME280;29098;48.184;16.298;2023-04-06T05:56:11;99717.88;;;0.74;55.58
43503;BME280;29098;48.184;16.298;2023-04-06T05:58:37;99699.44;;;0.66;55.40
43503;BME280;29098;48.184;16.298;2023-04-06T06:01:02;99697.72;;;0.78;55.40
43503;BME280;29098;48.184;16.298;2023-04-06T06:03:30;99708.25;;;0.63;55.31
43503;BME280;29098;48.184;16.298;2023-04-06T06:06:02;99747.00;;;0.91;55.29
43503;BME280;29098;48.184;16.298;2023-04-06T06:08:28;99719.72;;;0.85;55.28
43503;BME280;29098;48.184;16.298;2023-04-06T06:10:54;99734.19;;;1.01;54.84
43503;BME280;29098;48.184;16.298;2023-04-06T06:13:20;99721.81;;;1.04;54.38
43503;BME280;29098;48.184;16.298;2023-04-06T06:15:47;99703.16;;;1.11;54.21
43503;BME280;29098;48.184;16.298;2023-04-06T06:18:12;99749.66;;;1.38;54.14
43503;BME280;29098;48.184;16.298;2023-04-06T06:20:38;99735.78;;;1.50;53.88
43503;BME280;29098;48.184;16.298;2023-04-06T06:23:03;99733.53;;;1.46;53.92
43503;BME280;29098;48.184;16.298;2023-04-06T06:25:29;99732.50;;;1.48;53.73
43503;BME280;29098;48.184;16.298;2023-04-06T06:27:56;99701.41;;;1.47;53.36
43503;BME280;29098;48.184;16.298;2023-04-06T06:30:22;99715.63;;;1.66;53.35
43503;BME280;29098;48.184;16.298;2023-04-06T06:32:47;99722.66;;;1.88;53.11
43503;BME280;29098;48.184;16.298;2023-04-06T06:35:13;99726.66;;;1.92;52.74
43503;BME280;29098;48.184;16.298;2023-04-06T06:37:39;99717.00;;;2.05;52.47
43503;BME280;29098;48.184;16.298;2023-04-06T06:40:05;99724.91;;;2.15;52.44
43503;BME280;29098;48.184;16.298;2023-04-06T06:42:31;99734.84;;;2.22;52.55
43503;BME280;29098;48.184;16.298;2023-04-06T06:44:56;99711.69;;;2.07;52.49
43503;BME280;29098;48.184;16.298;2023-04-06T06:47:22;99717.34;;;2.24;52.65
43503;BME280;29098;48.184;16.298;2023-04-06T06:49:47;99716.41;;;2.25;52.76
43503;BME280;29098;48.184;16.298;2023-04-06T06:52:13;99718.06;;;2.14;53.00
43503;BME280;29098;48.184;16.298;2023-04-06T06:54:38;99719.00;;;2.25;52.96
43503;BME280;29098;48.184;16.298;2023-04-06T06:57:04;99719.97;;;2.35;53.11
43503;BME280;29098;48.184;16.298;2023-04-06T06:59:30;99690.41;;;2.36;52.65
43503;BME280;29098;48.184;16.298;2023-04-06T07:01:55;99731.50;;;2.65;52.96
43503;BME280;29098;48.184;16.298;2023-04-06T07:04:21;99727.03;;;2.56;52.69
43503;BME280;29098;48.184;16.298;2023-04-06T07:06:46;99713.91;;;2.57;52.78
43503;BME280;29098;48.184;16.298;2023-04-06T07:09:12;99743.19;;;2.82;52.36
43503;BME280;29098;48.184;16.298;2023-04-06T07:11:37;99753.03;;;2.79;52.46
43503;BME280;29098;48.184;16.298;2023-04-06T07:14:03;99730.66;;;2.87;52.70
43503;BME280;29098;48.184;16.298;2023-04-06T07:16:28;99729.06;;;2.96;52.44
43503;BME280;29098;48.184;16.298;2023-04-06T07:18:54;99742.25;;;3.27;52.03
43503;BME280;29098;48.184;16.298;2023-04-06T07:21:19;99736.59;;;3.11;52.35
43503;BME280;29098;48.184;16.298;2023-04-06T07:23:45;99705.13;;;3.14;52.17
43503;BME280;29098;48.184;16.298;2023-04-06T07:26:13;99726.47;;;3.29;51.98
43503;BME280;29098;48.184;16.298;2023-04-06T07:28:38;99729.28;;;3.37;52.24
43503;BME280;29098;48.184;16.298;2023-04-06T07:31:04;99757.63;;;3.63;52.54
43503;BME280;29098;48.184;16.298;2023-04-06T07:33:30;99745.00;;;3.68;51.92
43503;BME280;29098;48.184;16.298;2023-04-06T07:35:56;99750.06;;;3.81;51.63
43503;BME280;29098;48.184;16.298;2023-04-06T07:38:23;99697.56;;;3.75;51.25
43503;BME280;29098;48.184;16.298;2023-04-06T07:40:49;99728.72;;;3.97;51.42
43503;BME280;29098;48.184;16.298;2023-04-06T07:43:14;99730.88;;;4.14;51.33
43503;BME280;29098;48.184;16.298;2023-04-06T07:45:40;99713.16;;;4.17;51.04
43503;BME280;29098;48.184;16.298;2023-04-06T07:48:06;99701.66;;;4.30;50.57
43503;BME280;29098;48.184;16.298;2023-04-06T07:50:31;99735.59;;;4.71;50.11
43503;BME280;29098;48.184;16.298;2023-04-06T07:52:57;99727.94;;;5.18;48.76
43503;BME280;29098;48.184;16.298;2023-04-06T07:55:23;99711.44;;;5.47;48.40
43503;BME280;29098;48.184;16.298;2023-04-06T07:57:48;99710.56;;;5.67;47.42
43503;BME280;29098;48.184;16.298;2023-04-06T08:00:14;99725.13;;;5.89;47.04
43503;BME280;29098;48.184;16.298;2023-04-06T08:02:39;99727.03;;;6.07;46.84
43503;BME280;29098;48.184;16.298;2023-04-06T08:05:05;99697.75;;;5.73;47.22
43503;BME280;29098;48.184;16.298;2023-04-06T08:07:31;99684.19;;;5.50;47.42
43503;BME280;29098;48.184;16.298;2023-04-06T08:09:56;99694.94;;;5.27;48.31
43503;BME280;29098;48.184;16.298;2023-04-06T08:12:22;99715.84;;;5.37;48.38
43503;BME280;29098;48.184;16.298;2023-04-06T08:14:47;99721.75;;;5.29;48.71
43503;BME280;29098;48.184;16.298;2023-04-06T08:17:13;99701.09;;;5.46;47.71
43503;BME280;29098;48.184;16.298;2023-04-06T08:19:39;99698.22;;;5.39;47.81
43503;BME280;29098;48.184;16.298;2023-04-06T08:22:04;99729.22;;;5.24;48.86
43503;BME280;29098;48.184;16.298;2023-04-06T08:24:30;99706.78;;;5.31;48.14
43503;BME280;29098;48.184;16.298;2023-04-06T08:26:57;99716.41;;;5.31;48.10
43503;BME280;29098;48.184;16.298;2023-04-06T08:29:23;99652.84;;;5.11;47.82
43503;BME280;29098;48.184;16.298;2023-04-06T08:31:48;99685.72;;;5.33;48.17
43503;BME280;29098;48.184;16.298;2023-04-06T08:34:14;99682.25;;;5.42;47.58
43503;BME280;29098;48.184;16.298;2023-04-06T08:36:40;99644.72;;;5.14;47.92
43503;BME280;29098;48.184;16.298;2023-04-06T08:39:06;99690.09;;;5.42;47.54
43503;BME280;29098;48.184;16.298;2023-04-06T08:41:31;99709.22;;;5.53;47.26
43503;BME280;29098;48.184;16.298;2023-04-06T08:43:59;99714.97;;;5.76;47.15
43503;BME280;29098;48.184;16.298;2023-04-06T08:46:25;99677.41;;;5.67;47.00
43503;BME280;29098;48.184;16.298;2023-04-06T08:48:56;99677.09;;;5.80;47.00
43503;BME280;29098;48.184;16.298;2023-04-06T08:51:26;99670.06;;;5.81;47.07
43503;BME280;29098;48.184;16.298;2023-04-06T08:53:55;99699.50;;;6.02;47.48
43503;BME280;29098;48.184;16.298;2023-04-06T08:56:22;99692.03;;;6.08;46.10
43503;BME280;29098;48.184;16.298;2023-04-06T08:58:49;99676.53;;;5.86;46.18
43503;BME280;29098;48.184;16.298;2023-04-06T09:01:17;99687.91;;;6.05;46.96
43503;BME280;29098;48.184;16.298;2023-04-06T09:03:44;99666.94;;;6.15;46.46
43503;BME280;29098;48.184;16.298;2023-04-06T09:06:11;99676.78;;;6.31;46.50
43503;BME280;29098;48.184;16.298;2023-04-06T09:08:39;99666.84;;;6.35;45.60
43503;BME280;29098;48.184;16.298;2023-04-06T09:11:05;99681.03;;;6.60;44.99
43503;BME280;29098;48.184;16.298;2023-04-06T09:13:31;99645.34;;;6.31;45.27
43503;BME280;29098;48.184;16.298;2023-04-06T09:16:09;99671.50;;;6.41;45.06
43503;BME280;29098;48.184;16.298;2023-04-06T09:18:34;99635.81;;;6.40;45.18
43503;BME280;29098;48.184;16.298;2023-04-06T09:21:05;99664.69;;;6.48;44.88
43503;BME280;29098;48.184;16.298;2023-04-06T09:23:31;99620.16;;;6.48;45.43
43503;BME280;29098;48.184;16.298;2023-04-06T09:26:16;99643.69;;;6.76;44.13
43503;BME280;29098;48.184;16.298;2023-04-06T09:28:47;99648.41;;;7.09;43.62
43503;BME280;29098;48.184;16.298;2023-04-06T09:31:15;99651.31;;;7.24;43.22
43503;BME280;29098;48.184;16.298;2023-04-06T09:33:43;99647.94;;;7.32;43.13
43503;BME280;29098;48.184;16.298;2023-04-06T09:36:09;99614.22;;;7.45;41.81
43503;BME280;29098;48.184;16.298;2023-04-06T09:38:50;99597.97;;;7.42;41.93
43503;BME280;29098;48.184;16.298;2023-04-06T09:41:24;99632.59;;;7.45;41.66
43503;BME280;29098;48.184;16.298;2023-04-06T09:44:05;99602.97;;;7.53;40.02
43503;BME280;29098;48.184;16.298;2023-04-06T09:46:39;99606.97;;;7.65;40.44
43503;BME280;29098;48.184;16.298;2023-04-06T09:49:06;99607.25;;;7.89;38.53
43503;BME280;29098;48.184;16.298;2023-04-06T09:51:37;99611.66;;;7.88;38.56
43503;BME280;29098;48.184;16.298;2023-04-06T09:54:04;99603.31;;;7.93;38.53
43503;BME280;29098;48.184;16.298;2023-04-06T09:56:58;99609.72;;;7.90;38.57
43503;BME280;29098;48.184;16.298;2023-04-06T10:02:26;99604.56;;;8.15;37.81
43503;BME280;29098;48.184;16.298;2023-04-06T10:04:59;99561.91;;;8.13;36.83
43503;BME280;29098;48.184;16.298;2023-04-06T10:07:27;99567.47;;;8.27;37.03
43503;BME280;29098;48.184;16.298;2023-04-06T10:09:54;99590.00;;;8.46;36.82
43503;BME280;29098;48.184;16.298;2023-04-06T10:12:20;99560.19;;;8.55;36.87
43503;BME280;29098;48.184;16.298;2023-04-06T10:14:45;99591.53;;;8.65;33.47
43503;BME280;29098;48.184;16.298;2023-04-06T10:17:11;99575.06;;;8.30;34.79
43503;BME280;29098;48.184;16.298;2023-04-06T10:22:10;99598.78;;;9.04;35.53
43503;BME280;29098;48.184;16.298;2023-04-06T10:24:37;99559.03;;;9.08;35.44
43503;BME280;29098;48.184;16.298;2023-04-06T10:27:04;99587.88;;;9.49;34.35
43503;BME280;29098;48.184;16.298;2023-04-06T10:29:45;99584.13;;;9.92;33.60
43503;BME280;29098;48.184;16.298;2023-04-06T10:32:11;99590.41;;;9.74;33.04
43503;BME280;29098;48.184;16.298;2023-04-06T10:34:37;99543.94;;;9.98;32.80
43503;BME280;29098;48.184;16.298;2023-04-06T10:37:16;99538.50;;;9.91;33.20
43503;BME280;29098;48.184;16.298;2023-04-06T10:39:52;99563.50;;;10.27;33.22
43503;BME280;29098;48.184;16.298;2023-04-06T10:42:36;99546.31;;;10.39;31.71
43503;BME280;29098;48.184;16.298;2023-04-06T10:45:06;99557.00;;;10.69;31.73
43503;BME280;29098;48.184;16.298;2023-04-06T10:47:39;99542.47;;;10.50;31.63
43503;BME280;29098;48.184;16.298;2023-04-06T10:50:05;99570.97;;;11.08;30.87
43503;BME280;29098;48.184;16.298;2023-04-06T10:52:31;99526.69;;;11.34;30.61
43503;BME280;29098;48.184;16.298;2023-04-06T10:54:57;99559.53;;;11.16;30.25
43503;BME280;29098;48.184;16.298;2023-04-06T10:57:29;99577.22;;;11.31;30.30
43503;BME280;29098;48.184;16.298;2023-04-06T10:59:56;99567.56;;;11.53;29.77
43503;BME280;29098;48.184;16.298;2023-04-06T11:02:21;99550.63;;;12.29;29.51
43503;BME280;29098;48.184;16.298;2023-04-06T11:04:55;99523.69;;;12.91;29.24
43503;BME280;29098;48.184;16.298;2023-04-06T11:07:25;99557.09;;;12.70;29.39
43503;BME280;29098;48.184;16.298;2023-04-06T11:09:52;99551.38;;;12.23;29.05
43503;BME280;29098;48.184;16.298;2023-04-06T11:12:25;99521.06;;;12.47;28.10
43503;BME280;29098;48.184;16.298;2023-04-06T11:15:01;99546.94;;;12.09;28.66
43503;BME280;29098;48.184;16.298;2023-04-06T11:17:35;99536.63;;;12.14;28.54
43503;BME280;29098;48.184;16.298;2023-04-06T11:20:03;99508.03;;;12.02;29.17
43503;BME280;29098;48.184;16.298;2023-04-06T11:22:31;99481.31;;;12.56;27.68
43503;BME280;29098;48.184;16.298;2023-04-06T11:25:06;99551.06;;;13.40;27.53
43503;BME280;29098;48.184;16.298;2023-04-06T11:27:33;99532.56;;;13.89;26.40
43503;BME280;29098;48.184;16.298;2023-04-06T11:30:00;99546.03;;;13.94;27.46
43503;BME280;29098;48.184;16.298;2023-04-06T11:32:26;99529.72;;;13.91;26.02
43503;BME280;29098;48.184;16.298;2023-04-06T11:34:52;99461.28;;;14.08;25.03
43503;BME280;29098;48.184;16.298;2023-04-06T11:37:17;99470.03;;;12.47;26.17
43503;BME280;29098;48.184;16.298;2023-04-06T11:39:48;99503.84;;;12.80;27.31
43503;BME280;29098;48.184;16.298;2023-04-06T11:42:25;99516.19;;;13.65;25.64
43503;BME280;29098;48.184;16.298;2023-04-06T11:44:53;99449.66;;;14.09;24.96
43503;BME280;29098;48.184;16.298;2023-04-06T11:47:19;99496.38;;;14.71;24.38
43503;BME280;29098;48.184;16.298;2023-04-06T11:49:45;99435.97;;;14.66;24.35
43503;BME280;29098;48.184;16.298;2023-04-06T11:52:21;99480.44;;;15.64;23.55
43503;BME280;29098;48.184;16.298;2023-04-06T11:54:48;99458.28;;;15.83;22.62
43503;BME280;29098;48.184;16.298;2023-04-06T11:57:14;99462.13;;;15.87;23.01
43503;BME280;29098;48.184;16.298;2023-04-06T11:59:40;99491.75;;;16.30;23.74
43503;BME280;29098;48.184;16.298;2023-04-06T12:02:05;99457.75;;;17.20;21.92
43503;BME280;29098;48.184;16.298;2023-04-06T12:04:32;99448.13;;;15.67;22.96
43503;BME280;29098;48.184;16.298;2023-04-06T12:06:57;99450.16;;;16.10;22.45
43503;BME280;29098;48.184;16.298;2023-04-06T12:09:23;99450.75;;;15.73;22.96
43503;BME280;29098;48.184;16.298;2023-04-06T12:11:49;99454.63;;;16.67;23.01
43503;BME280;29098;48.184;16.298;2023-04-06T12:14:14;99442.09;;;15.92;22.14
43503;BME280;29098;48.184;16.298;2023-04-06T12:16:40;99442.16;;;15.78;22.38
43503;BME280;29098;48.184;16.298;2023-04-06T12:19:06;99420.41;;;15.88;22.96
43503;BME280;29098;48.184;16.298;2023-04-06T12:21:32;99442.38;;;17.04;21.92
43503;BME280;29098;48.184;16.298;2023-04-06T12:23:58;99418.31;;;16.92;21.36
43503;BME280;29098;48.184;16.298;2023-04-06T12:26:24;99443.91;;;17.79;21.37
43503;BME280;29098;48.184;16.298;2023-04-06T12:28:50;99435.06;;;16.74;21.55
43503;BME280;29098;48.184;16.298;2023-04-06T12:31:17;99443.50;;;17.15;21.39
43503;BME280;29098;48.184;16.298;2023-04-06T12:33:43;99424.69;;;17.59;21.13
43503;BME280;29098;48.184;16.298;2023-04-06T12:36:14;99429.53;;;18.11;20.90
43503;BME280;29098;48.184;16.298;2023-04-06T12:38:41;99447.94;;;19.32;19.37
43503;BME280;29098;48.184;16.298;2023-04-06T12:41:07;99437.31;;;17.82;20.46
43503;BME280;29098;48.184;16.298;2023-04-06T12:43:33;99416.63;;;16.35;21.44
43503;BME280;29098;48.184;16.298;2023-04-06T12:45:59;99420.09;;;16.79;21.46
43503;BME280;29098;48.184;16.298;2023-04-06T12:48:25;99424.47;;;17.30;21.47
43503;BME280;29098;48.184;16.298;2023-04-06T12:51:00;99423.06;;;17.58;20.77
43503;BME280;29098;48.184;16.298;2023-04-06T12:53:26;99373.47;;;15.75;22.35
43503;BME280;29098;48.184;16.298;2023-04-06T12:55:54;99392.81;;;15.50;22.71
43503;BME280;29098;48.184;16.298;2023-04-06T12:58:20;99384.41;;;15.92;22.37
43503;BME280;29098;48.184;16.298;2023-04-06T13:00:47;99434.38;;;15.77;22.33